sensor_id;sensor_type;location;lat;lon;timestamp;temperature;humidity
33109;HTU21D;19481;51.118;6.940;2022-11-24T00:01:40;6.87;74.94
33109;HTU21D;19481;51.118;6.940;2022-11-24T00:06:43;6.90;74.34
33109;HTU21D;19481;51.118;6.940;2022-11-24T00:11:45;6.97;73.87
33109;HTU21D;19481;51.118;6.940;2022-11-24T00:16:46;7.07;76.29
33109;HTU21D;19481;51.118;6.940;2022-11-24T00:21:49;7.05;73.47
33109;HTU21D;19481;51.118;6.940;2022-11-24T00:26:51;7.07;73.77
33109;HTU21D;19481;51.118;6.940;2022-11-24T00:31:52;7.11;73.93
33109;HTU21D;19481;51.118;6.940;2022-11-24T00:36:55;7.09;74.06
33109;HTU21D;19481;51.118;6.940;2022-11-24T00:41:57;7.03;74.79
33109;HTU21D;19481;51.118;6.940;2022-11-24T00:46:58;6.97;74.57
33109;HTU21D;19481;51.118;6.940;2022-11-24T00:52:01;7.01;74.54
33109;HTU21D;19481;51.118;6.940;2022-11-24T00:57:03;7.03;74.61
33109;HTU21D;19481;51.118;6.940;2022-11-24T01:02:04;7.05;74.59
33109;HTU21D;19481;51.118;6.940;2022-11-24T01:07:08;6.98;73.73
33109;HTU21D;19481;51.118;6.940;2022-11-24T01:12:09;6.97;74.14
33109;HTU21D;19481;51.118;6.940;2022-11-24T01:17:11;6.96;73.87
33109;HTU21D;19481;51.118;6.940;2022-11-24T01:22:14;6.96;73.90
33109;HTU21D;19481;51.118;6.940;2022-11-24T01:27:16;7.04;74.25
33109;HTU21D;19481;51.118;6.940;2022-11-24T01:32:17;7.14;74.16
33109;HTU21D;19481;51.118;6.940;2022-11-24T01:37:20;7.27;73.67
33109;HTU21D;19481;51.118;6.940;2022-11-24T01:42:22;7.38;73.60
33109;HTU21D;19481;51.118;6.940;2022-11-24T01:47:30;7.42;73.46
33109;HTU21D;19481;51.118;6.940;2022-11-24T01:52:37;7.42;75.36
33109;HTU21D;19481;51.118;6.940;2022-11-24T01:57:43;7.39;73.88
33109;HTU21D;19481;51.118;6.940;2022-11-24T02:02:49;7.42;73.42
33109;HTU21D;19481;51.118;6.940;2022-11-24T02:07:54;7.46;73.54
33109;HTU21D;19481;51.118;6.940;2022-11-24T02:12:58;7.61;73.72
33109;HTU21D;19481;51.118;6.940;2022-11-24T02:18:00;7.72;72.99
33109;HTU21D;19481;51.118;6.940;2022-11-24T02:23:11;7.86;72.86
33109;HTU21D;19481;51.118;6.940;2022-11-24T02:28:18;7.97;72.44
33109;HTU21D;19481;51.118;6.940;2022-11-24T02:33:21;8.02;72.35
33109;HTU21D;19481;51.118;6.940;2022-11-24T02:38:29;8.12;72.81
33109;HTU21D;19481;51.118;6.940;2022-11-24T02:43:36;8.18;72.43
33109;HTU21D;19481;51.118;6.940;2022-11-24T02:48:39;8.23;72.29
33109;HTU21D;19481;51.118;6.940;2022-11-24T02:53:41;8.32;71.98
33109;HTU21D;19481;51.118;6.940;2022-11-24T02:58:44;8.36;72.06
33109;HTU21D;19481;51.118;6.940;2022-11-24T03:03:46;8.34;72.43
33109;HTU21D;19481;51.118;6.940;2022-11-24T03:08:47;8.32;72.35
33109;HTU21D;19481;51.118;6.940;2022-11-24T03:13:50;8.38;72.25
33109;HTU21D;19481;51.118;6.940;2022-11-24T03:18:52;8.33;72.24
33109;HTU21D;19481;51.118;6.940;2022-11-24T03:23:54;8.34;72.32
33109;HTU21D;19481;51.118;6.940;2022-11-24T03:28:57;8.36;72.29
33109;HTU21D;19481;51.118;6.940;2022-11-24T03:33:59;8.44;72.38
33109;HTU21D;19481;51.118;6.940;2022-11-24T03:39:00;8.37;72.08
33109;HTU21D;19481;51.118;6.940;2022-11-24T03:44:04;8.32;72.37
33109;HTU21D;19481;51.118;6.940;2022-11-24T03:49:05;8.32;73.13
33109;HTU21D;19481;51.118;6.940;2022-11-24T03:54:07;8.32;72.41
33109;HTU21D;19481;51.118;6.940;2022-11-24T03:59:10;8.34;72.51
33109;HTU21D;19481;51.118;6.940;2022-11-24T04:04:12;8.36;72.43
33109;HTU21D;19481;51.118;6.940;2022-11-24T04:09:14;8.39;72.29
33109;HTU21D;19481;51.118;6.940;2022-11-24T04:14:17;8.43;72.30
33109;HTU21D;19481;51.118;6.940;2022-11-24T04:19:20;8.46;72.35
33109;HTU21D;19481;51.118;6.940;2022-11-24T04:24:21;8.52;72.18
33109;HTU21D;19481;51.118;6.940;2022-11-24T04:29:24;8.58;71.90
33109;HTU21D;19481;51.118;6.940;2022-11-24T04:34:26;8.62;71.93
33109;HTU21D;19481;51.118;6.940;2022-11-24T04:39:27;8.68;71.63
33109;HTU21D;19481;51.118;6.940;2022-11-24T04:44:30;8.79;71.32
33109;HTU21D;19481;51.118;6.940;2022-11-24T04:49:32;8.88;71.13
33109;HTU21D;19481;51.118;6.940;2022-11-24T04:54:33;9.00;70.76
33109;HTU21D;19481;51.118;6.940;2022-11-24T04:59:36;9.05;70.64
33109;HTU21D;19481;51.118;6.940;2022-11-24T05:04:38;9.08;70.81
33109;HTU21D;19481;51.118;6.940;2022-11-24T05:09:40;9.11;70.72
33109;HTU21D;19481;51.118;6.940;2022-11-24T05:14:57;9.07;70.93
33109;HTU21D;19481;51.118;6.940;2022-11-24T05:19:59;9.07;71.03
33109;HTU21D;19481;51.118;6.940;2022-11-24T05:25:00;9.10;70.86
33109;HTU21D;19481;51.118;6.940;2022-11-24T05:30:05;9.09;70.90
33109;HTU21D;19481;51.118;6.940;2022-11-24T05:35:07;9.12;70.79
33109;HTU21D;19481;51.118;6.940;2022-11-24T05:40:10;9.10;70.93
33109;HTU21D;19481;51.118;6.940;2022-11-24T05:45:14;9.10;70.82
33109;HTU21D;19481;51.118;6.940;2022-11-24T05:50:18;9.15;70.54
33109;HTU21D;19481;51.118;6.940;2022-11-24T05:55:20;9.07;70.94
33109;HTU21D;19481;51.118;6.940;2022-11-24T06:00:23;9.11;70.66
33109;HTU21D;19481;51.118;6.940;2022-11-24T06:05:26;9.08;70.72
33109;HTU21D;19481;51.118;6.940;2022-11-24T06:10:28;9.07;70.88
33109;HTU21D;19481;51.118;6.940;2022-11-24T06:15:31;9.14;70.50
33109;HTU21D;19481;51.118;6.940;2022-11-24T06:20:32;9.19;70.34
33109;HTU21D;19481;51.118;6.940;2022-11-24T06:25:34;9.22;70.29
33109;HTU21D;19481;51.118;6.940;2022-11-24T06:30:37;9.27;70.13
33109;HTU21D;19481;51.118;6.940;2022-11-24T06:35:38;9.35;69.87
33109;HTU21D;19481;51.118;6.940;2022-11-24T06:40:40;9.34;69.84
33109;HTU21D;19481;51.118;6.940;2022-11-24T06:45:43;9.34;69.40
33109;HTU21D;19481;51.118;6.940;2022-11-24T06:50:44;9.35;69.45
33109;HTU21D;19481;51.118;6.940;2022-11-24T06:55:46;9.25;69.85
33109;HTU21D;19481;51.118;6.940;2022-11-24T07:00:49;9.24;69.68
33109;HTU21D;19481;51.118;6.940;2022-11-24T07:05:55;9.21;69.50
33109;HTU21D;19481;51.118;6.940;2022-11-24T07:11:03;9.17;69.53
33109;HTU21D;19481;51.118;6.940;2022-11-24T07:16:15;9.03;69.81
33109;HTU21D;19481;51.118;6.940;2022-11-24T07:21:18;8.90;70.03
33109;HTU21D;19481;51.118;6.940;2022-11-24T07:26:21;8.81;70.07
33109;HTU21D;19481;51.118;6.940;2022-11-24T07:31:24;8.72;70.29
33109;HTU21D;19481;51.118;6.940;2022-11-24T07:36:25;8.83;69.71
33109;HTU21D;19481;51.118;6.940;2022-11-24T07:41:27;8.89;69.18
33109;HTU21D;19481;51.118;6.940;2022-11-24T07:46:30;8.88;69.40
33109;HTU21D;19481;51.118;6.940;2022-11-24T07:51:31;8.89;69.46
33109;HTU21D;19481;51.118;6.940;2022-11-24T07:56:33;8.92;69.39
33109;HTU21D;19481;51.118;6.940;2022-11-24T08:01:36;8.98;69.14
33109;HTU21D;19481;51.118;6.940;2022-11-24T08:06:37;9.06;68.65
33109;HTU21D;19481;51.118;6.940;2022-11-24T08:11:39;9.11;68.70
33109;HTU21D;19481;51.118;6.940;2022-11-24T08:16:42;9.12;68.86
33109;HTU21D;19481;51.118;6.940;2022-11-24T08:21:44;9.15;68.94
33109;HTU21D;19481;51.118;6.940;2022-11-24T08:26:45;9.20;68.85
33109;HTU21D;19481;51.118;6.940;2022-11-24T08:31:48;9.29;68.74
33109;HTU21D;19481;51.118;6.940;2022-11-24T08:36:50;9.37;68.65
33109;HTU21D;19481;51.118;6.940;2022-11-24T08:41:51;9.44;68.53
33109;HTU21D;19481;51.118;6.940;2022-11-24T08:46:54;9.47;68.63
33109;HTU21D;19481;51.118;6.940;2022-11-24T08:51:56;9.56;68.40
33109;HTU21D;19481;51.118;6.940;2022-11-24T08:56:58;9.66;68.31
33109;HTU21D;19481;51.118;6.940;2022-11-24T09:02:01;9.81;67.86
33109;HTU21D;19481;51.118;6.940;2022-11-24T09:07:02;9.95;67.75
33109;HTU21D;19481;51.118;6.940;2022-11-24T09:12:05;9.97;67.85
33109;HTU21D;19481;51.118;6.940;2022-11-24T09:17:08;10.05;67.72
33109;HTU21D;19481;51.118;6.940;2022-11-24T09:22:09;10.13;67.59
33109;HTU21D;19481;51.118;6.940;2022-11-24T09:27:11;10.24;67.35
33109;HTU21D;19481;51.118;6.940;2022-11-24T09:32:14;10.36;67.23
33109;HTU21D;19481;51.118;6.940;2022-11-24T09:37:15;10.38;67.07
33109;HTU21D;19481;51.118;6.940;2022-11-24T09:42:28;10.37;67.31
33109;HTU21D;19481;51.118;6.940;2022-11-24T09:47:40;10.48;67.18
33109;HTU21D;19481;51.118;6.940;2022-11-24T09:52:47;10.62;66.79
33109;HTU21D;19481;51.118;6.940;2022-11-24T09:57:56;10.85;66.20
33109;HTU21D;19481;51.118;6.940;2022-11-24T10:03:03;11.24;65.31
33109;HTU21D;19481;51.118;6.940;2022-11-24T10:08:15;11.74;64.01
33109;HTU21D;19481;51.118;6.940;2022-11-24T10:13:34;12.81;61.39
33109;HTU21D;19481;51.118;6.940;2022-11-24T10:18:55;12.48;61.11
33109;HTU21D;19481;51.118;6.940;2022-11-24T10:29:28;12.33;64.61
33109;HTU21D;19481;51.118;6.940;2022-11-24T10:34:33;13.89;59.16
33109;HTU21D;19481;51.118;6.940;2022-11-24T10:39:39;14.93;56.75
33109;HTU21D;19481;51.118;6.940;2022-11-24T10:44:42;14.14;60.76
33109;HTU21D;19481;51.118;6.940;2022-11-24T10:49:54;13.98;61.47
33109;HTU21D;19481;51.118;6.940;2022-11-24T10:54:58;14.69;59.38
33109;HTU21D;19481;51.118;6.940;2022-11-24T11:00:01;14.99;58.94
33109;HTU21D;19481;51.118;6.940;2022-11-24T11:05:37;15.68;54.97
33109;HTU21D;19481;51.118;6.940;2022-11-24T11:10:41;15.77;56.85
33109;HTU21D;19481;51.118;6.940;2022-11-24T11:15:43;15.42;58.64
33109;HTU21D;19481;51.118;6.940;2022-11-24T11:20:51;15.09;58.79
33109;HTU21D;19481;51.118;6.940;2022-11-24T11:26:18;15.07;57.97
33109;HTU21D;19481;51.118;6.940;2022-11-24T11:31:20;15.25;59.32
33109;HTU21D;19481;51.118;6.940;2022-11-24T11:36:23;15.17;59.65
33109;HTU21D;19481;51.118;6.940;2022-11-24T11:41:29;14.71;58.17
33109;HTU21D;19481;51.118;6.940;2022-11-24T11:46:32;14.28;60.27
33109;HTU21D;19481;51.118;6.940;2022-11-24T11:52:07;13.70;61.89
33109;HTU21D;19481;51.118;6.940;2022-11-24T11:57:16;13.64;61.42
33109;HTU21D;19481;51.118;6.940;2022-11-24T12:08:08;13.56;58.23
33109;HTU21D;19481;51.118;6.940;2022-11-24T12:13:33;13.21;59.85
33109;HTU21D;19481;51.118;6.940;2022-11-24T12:18:41;13.20;61.53
33109;HTU21D;19481;51.118;6.940;2022-11-24T12:23:59;12.91;61.66
33109;HTU21D;19481;51.118;6.940;2022-11-24T12:29:24;12.66;61.58
33109;HTU21D;19481;51.118;6.940;2022-11-24T12:34:37;12.96;60.91
33109;HTU21D;19481;51.118;6.940;2022-11-24T12:39:46;13.19;59.22
33109;HTU21D;19481;51.118;6.940;2022-11-24T12:45:13;13.45;59.03
33109;HTU21D;19481;51.118;6.940;2022-11-24T12:50:17;13.10;60.59
33109;HTU21D;19481;51.118;6.940;2022-11-24T12:55:22;12.92;61.18
33109;HTU21D;19481;51.118;6.940;2022-11-24T13:00:33;12.84;59.53
33109;HTU21D;19481;51.118;6.940;2022-11-24T13:05:44;12.88;59.95
33109;HTU21D;19481;51.118;6.940;2022-11-24T13:10:50;12.79;61.20
33109;HTU21D;19481;51.118;6.940;2022-11-24T13:16:10;12.55;60.39
33109;HTU21D;19481;51.118;6.940;2022-11-24T13:21:32;12.41;60.53
33109;HTU21D;19481;51.118;6.940;2022-11-24T13:26:46;12.46;61.18
33109;HTU21D;19481;51.118;6.940;2022-11-24T13:31:48;12.73;60.89
33109;HTU21D;19481;51.118;6.940;2022-11-24T13:36:51;12.58;61.34
33109;HTU21D;19481;51.118;6.940;2022-11-24T13:42:04;12.85;59.80
33109;HTU21D;19481;51.118;6.940;2022-11-24T13:47:39;12.51;57.64
33109;HTU21D;19481;51.118;6.940;2022-11-24T13:52:46;12.74;60.15
33109;HTU21D;19481;51.118;6.940;2022-11-24T13:57:51;12.82;55.95
33109;HTU21D;19481;51.118;6.940;2022-11-24T14:02:56;12.62;60.01
33109;HTU21D;19481;51.118;6.940;2022-11-24T14:07:59;12.56;60.78
33109;HTU21D;19481;51.118;6.940;2022-11-24T14:13:23;12.47;59.19
33109;HTU21D;19481;51.118;6.940;2022-11-24T14:18:25;12.35;61.08
33109;HTU21D;19481;51.118;6.940;2022-11-24T14:23:28;12.22;61.34
33109;HTU21D;19481;51.118;6.940;2022-11-24T14:28:31;12.13;61.44
33109;HTU21D;19481;51.118;6.940;2022-11-24T14:33:33;12.05;61.38
33109;HTU21D;19481;51.118;6.940;2022-11-24T14:38:34;11.93;61.50
33109;HTU21D;19481;51.118;6.940;2022-11-24T14:43:37;11.85;61.60
33109;HTU21D;19481;51.118;6.940;2022-11-24T14:48:45;11.73;61.76
33109;HTU21D;19481;51.118;6.940;2022-11-24T14:53:50;11.64;61.92
33109;HTU21D;19481;51.118;6.940;2022-11-24T14:58:54;11.57;61.97
33109;HTU21D;19481;51.118;6.940;2022-11-24T15:04:13;11.46;61.79
33109;HTU21D;19481;51.118;6.940;2022-11-24T15:09:21;11.31;62.49
33109;HTU21D;19481;51.118;6.940;2022-11-24T15:14:35;11.12;62.81
33109;HTU21D;19481;51.118;6.940;2022-11-24T15:19:39;10.93;63.43
33109;HTU21D;19481;51.118;6.940;2022-11-24T15:24:47;10.84;63.49
33109;HTU21D;19481;51.118;6.940;2022-11-24T15:29:50;10.72;63.71
33109;HTU21D;19481;51.118;6.940;2022-11-24T15:34:52;10.59;63.79
33109;HTU21D;19481;51.118;6.940;2022-11-24T15:39:54;10.52;63.77
33109;HTU21D;19481;51.118;6.940;2022-11-24T15:44:56;10.41;63.81
33109;HTU21D;19481;51.118;6.940;2022-11-24T15:49:58;10.35;63.83
33109;HTU21D;19481;51.118;6.940;2022-11-24T15:55:00;10.30;63.74
33109;HTU21D;19481;51.118;6.940;2022-11-24T16:00:04;10.27;63.60
33109;HTU21D;19481;51.118;6.940;2022-11-24T16:05:06;10.10;63.95
33109;HTU21D;19481;51.118;6.940;2022-11-24T16:10:17;10.09;63.68
33109;HTU21D;19481;51.118;6.940;2022-11-24T16:15:22;10.10;63.40
33109;HTU21D;19481;51.118;6.940;2022-11-24T16:20:23;10.03;63.59
33109;HTU21D;19481;51.118;6.940;2022-11-24T16:25:25;9.96;63.63
33109;HTU21D;19481;51.118;6.940;2022-11-24T16:30:28;9.92;63.62
33109;HTU21D;19481;51.118;6.940;2022-11-24T16:35:30;9.84;63.69
33109;HTU21D;19481;51.118;6.940;2022-11-24T16:40:32;9.86;63.60
33109;HTU21D;19481;51.118;6.940;2022-11-24T16:45:35;9.85;63.52
33109;HTU21D;19481;51.118;6.940;2022-11-24T16:50:36;9.82;63.50
33109;HTU21D;19481;51.118;6.940;2022-11-24T16:55:38;9.84;63.34
33109;HTU21D;19481;51.118;6.940;2022-11-24T17:00:41;9.85;63.18
33109;HTU21D;19481;51.118;6.940;2022-11-24T17:05:42;9.83;63.15
33109;HTU21D;19481;51.118;6.940;2022-11-24T17:10:44;9.81;63.19
33109;HTU21D;19481;51.118;6.940;2022-11-24T17:15:47;9.74;63.40
33109;HTU21D;19481;51.118;6.940;2022-11-24T17:20:48;9.69;63.44
33109;HTU21D;19481;51.118;6.940;2022-11-24T17:25:50;9.53;63.88
33109;HTU21D;19481;51.118;6.940;2022-11-24T17:30:53;9.45;64.01
33109;HTU21D;19481;51.118;6.940;2022-11-24T17:36:00;9.40;63.98
33109;HTU21D;19481;51.118;6.940;2022-11-24T17:41:01;9.38;63.88
33109;HTU21D;19481;51.118;6.940;2022-11-24T17:46:05;9.27;64.12
33109;HTU21D;19481;51.118;6.940;2022-11-24T17:51:09;9.29;64.00
33109;HTU21D;19481;51.118;6.940;2022-11-24T17:56:14;9.24;64.01
33109;HTU21D;19481;51.118;6.940;2022-11-24T18:01:17;9.24;63.93
33109;HTU21D;19481;51.118;6.940;2022-11-24T18:06:19;9.17;64.08
33109;HTU21D;19481;51.118;6.940;2022-11-24T18:11:24;9.09;64.34
33109;HTU21D;19481;51.118;6.940;2022-11-24T18:16:29;9.01;64.45
33109;HTU21D;19481;51.118;6.940;2022-11-24T18:21:31;8.92;64.66
33109;HTU21D;19481;51.118;6.940;2022-11-24T18:26:33;8.83;64.82
33109;HTU21D;19481;51.118;6.940;2022-11-24T18:31:36;8.66;65.56
33109;HTU21D;19481;51.118;6.940;2022-11-24T18:36:38;8.55;65.43
33109;HTU21D;19481;51.118;6.940;2022-11-24T18:41:39;8.39;65.80
33109;HTU21D;19481;51.118;6.940;2022-11-24T18:46:42;8.29;66.00
33109;HTU21D;19481;51.118;6.940;2022-11-24T18:51:44;8.26;65.92
33109;HTU21D;19481;51.118;6.940;2022-11-24T18:56:46;8.13;66.19
33109;HTU21D;19481;51.118;6.940;2022-11-24T19:01:49;8.11;65.93
33109;HTU21D;19481;51.118;6.940;2022-11-24T19:06:50;8.12;65.86
33109;HTU21D;19481;51.118;6.940;2022-11-24T19:11:52;8.05;65.91
33109;HTU21D;19481;51.118;6.940;2022-11-24T19:16:55;8.08;65.69
33109;HTU21D;19481;51.118;6.940;2022-11-24T19:21:57;8.08;65.76
33109;HTU21D;19481;51.118;6.940;2022-11-24T19:26:58;8.11;65.65
33109;HTU21D;19481;51.118;6.940;2022-11-24T19:32:01;8.02;65.79
33109;HTU21D;19481;51.118;6.940;2022-11-24T19:37:03;8.00;65.92
33109;HTU21D;19481;51.118;6.940;2022-11-24T19:42:05;7.99;65.96
33109;HTU21D;19481;51.118;6.940;2022-11-24T19:47:08;8.01;65.85
33109;HTU21D;19481;51.118;6.940;2022-11-24T19:52:09;8.02;65.64
33109;HTU21D;19481;51.118;6.940;2022-11-24T19:57:11;8.07;66.06
33109;HTU21D;19481;51.118;6.940;2022-11-24T20:02:14;8.08;65.44
33109;HTU21D;19481;51.118;6.940;2022-11-24T20:07:15;8.03;65.79
33109;HTU21D;19481;51.118;6.940;2022-11-24T20:12:18;7.96;65.96
33109;HTU21D;19481;51.118;6.940;2022-11-24T20:17:21;7.90;65.92
33109;HTU21D;19481;51.118;6.940;2022-11-24T20:22:22;7.86;66.15
33109;HTU21D;19481;51.118;6.940;2022-11-24T20:27:24;7.82;66.75
33109;HTU21D;19481;51.118;6.940;2022-11-24T20:32:27;7.79;66.31
33109;HTU21D;19481;51.118;6.940;2022-11-24T20:37:29;7.68;66.65
33109;HTU21D;19481;51.118;6.940;2022-11-24T20:42:31;7.65;66.74
33109;HTU21D;19481;51.118;6.940;2022-11-24T20:47:36;7.62;66.62
33109;HTU21D;19481;51.118;6.940;2022-11-24T20:52:37;7.57;66.99
33109;HTU21D;19481;51.118;6.940;2022-11-24T20:57:39;7.58;66.72
33109;HTU21D;19481;51.118;6.940;2022-11-24T21:02:42;7.56;67.14
33109;HTU21D;19481;51.118;6.940;2022-11-24T21:07:44;7.56;66.88
33109;HTU21D;19481;51.118;6.940;2022-11-24T21:12:45;7.59;67.00
33109;HTU21D;19481;51.118;6.940;2022-11-24T21:17:48;7.55;67.19
33109;HTU21D;19481;51.118;6.940;2022-11-24T21:22:50;7.52;67.17
33109;HTU21D;19481;51.118;6.940;2022-11-24T21:27:51;7.59;66.87
33109;HTU21D;19481;51.118;6.940;2022-11-24T21:32:55;7.63;66.69
33109;HTU21D;19481;51.118;6.940;2022-11-24T21:37:57;7.61;67.05
33109;HTU21D;19481;51.118;6.940;2022-11-24T21:42:58;7.65;67.65
33109;HTU21D;19481;51.118;6.940;2022-11-24T21:48:01;7.70;67.14
33109;HTU21D;19481;51.118;6.940;2022-11-24T21:53:03;7.74;67.13
33109;HTU21D;19481;51.118;6.940;2022-11-24T21:58:05;7.75;67.42
33109;HTU21D;19481;51.118;6.940;2022-11-24T22:03:08;7.78;68.09
33109;HTU21D;19481;51.118;6.940;2022-11-24T22:08:09;7.75;67.40
33109;HTU21D;19481;51.118;6.940;2022-11-24T22:13:11;7.79;67.26
33109;HTU21D;19481;51.118;6.940;2022-11-24T22:18:14;7.89;68.19
33109;HTU21D;19481;51.118;6.940;2022-11-24T22:23:15;7.93;67.01
33109;HTU21D;19481;51.118;6.940;2022-11-24T22:28:17;7.99;67.02
33109;HTU21D;19481;51.118;6.940;2022-11-24T22:33:20;8.02;67.74
33109;HTU21D;19481;51.118;6.940;2022-11-24T22:38:21;8.11;66.96
33109;HTU21D;19481;51.118;6.940;2022-11-24T22:43:23;8.20;66.91
33109;HTU21D;19481;51.118;6.940;2022-11-24T22:48:27;8.20;66.94
33109;HTU21D;19481;51.118;6.940;2022-11-24T22:53:28;8.24;67.15
33109;HTU21D;19481;51.118;6.940;2022-11-24T22:58:30;8.36;66.96
33109;HTU21D;19481;51.118;6.940;2022-11-24T23:03:34;8.50;66.34
33109;HTU21D;19481;51.118;6.940;2022-11-24T23:08:35;8.57;66.59
33109;HTU21D;19481;51.118;6.940;2022-11-24T23:13:37;8.68;67.07
33109;HTU21D;19481;51.118;6.940;2022-11-24T23:18:41;8.79;66.24
33109;HTU21D;19481;51.118;6.940;2022-11-24T23:23:43;8.87;66.11
33109;HTU21D;19481;51.118;6.940;2022-11-24T23:28:45;8.91;66.61
33109;HTU21D;19481;51.118;6.940;2022-11-24T23:33:48;8.94;66.14
33109;HTU21D;19481;51.118;6.940;2022-11-24T23:38:50;8.94;66.29
33109;HTU21D;19481;51.118;6.940;2022-11-24T23:43:52;8.92;66.78
33109;HTU21D;19481;51.118;6.940;2022-11-24T23:48:55;8.90;66.69
33109;HTU21D;19481;51.118;6.940;2022-11-24T23:53:58;8.83;66.76
33109;HTU21D;19481;51.118;6.940;2022-11-24T23:59:00;8.80;66.76
